sensor_id;sensor_type;location;lat;lon;timestamp;temperature;humidity
35682;DHT22;21805;51.022;4.782;2023-07-31T00:01:12;18.30;99.90
35682;DHT22;21805;51.022;4.782;2023-07-31T00:03:40;18.30;99.90
35682;DHT22;21805;51.022;4.782;2023-07-31T00:06:15;18.10;99.90
35682;DHT22;21805;51.022;4.782;2023-07-31T00:09:03;18.10;99.90
35682;DHT22;21805;51.022;4.782;2023-07-31T00:11:33;18.10;99.90
35682;DHT22;21805;51.022;4.782;2023-07-31T00:14:01;18.10;99.90
35682;DHT22;21805;51.022;4.782;2023-07-31T00:16:27;18.20;99.90
35682;DHT22;21805;51.022;4.782;2023-07-31T00:18:57;18.20;99.90
35682;DHT22;21805;51.022;4.782;2023-07-31T00:24:09;18.20;99.90
35682;DHT22;21805;51.022;4.782;2023-07-31T00:26:45;18.20;99.90
35682;DHT22;21805;51.022;4.782;2023-07-31T00:29:11;18.20;99.90
35682;DHT22;21805;51.022;4.782;2023-07-31T00:34:15;18.20;99.90
35682;DHT22;21805;51.022;4.782;2023-07-31T00:36:43;18.30;99.90
35682;DHT22;21805;51.022;4.782;2023-07-31T00:39:10;18.30;99.90
35682;DHT22;21805;51.022;4.782;2023-07-31T00:41:50;18.30;99.90
35682;DHT22;21805;51.022;4.782;2023-07-31T00:46:49;18.40;99.90
35682;DHT22;21805;51.022;4.782;2023-07-31T00:49:30;18.30;99.90
35682;DHT22;21805;51.022;4.782;2023-07-31T00:51:59;18.20;99.90
35682;DHT22;21805;51.022;4.782;2023-07-31T00:54:32;18.30;99.90
35682;DHT22;21805;51.022;4.782;2023-07-31T00:57:05;18.40;99.90
35682;DHT22;21805;51.022;4.782;2023-07-31T00:59:49;18.40;99.90
35682;DHT22;21805;51.022;4.782;2023-07-31T01:02:22;18.40;99.90
35682;DHT22;21805;51.022;4.782;2023-07-31T01:04:48;18.30;99.90
35682;DHT22;21805;51.022;4.782;2023-07-31T01:07:17;18.30;99.90
35682;DHT22;21805;51.022;4.782;2023-07-31T01:09:59;18.40;99.90
35682;DHT22;21805;51.022;4.782;2023-07-31T01:12:30;18.40;99.90
35682;DHT22;21805;51.022;4.782;2023-07-31T01:17:30;18.40;99.90
35682;DHT22;21805;51.022;4.782;2023-07-31T01:22:36;18.50;99.90
35682;DHT22;21805;51.022;4.782;2023-07-31T01:30:15;18.60;99.90
35682;DHT22;21805;51.022;4.782;2023-07-31T01:32:42;18.60;99.90
35682;DHT22;21805;51.022;4.782;2023-07-31T01:35:12;18.60;99.90
35682;DHT22;21805;51.022;4.782;2023-07-31T01:37:40;18.70;99.90
35682;DHT22;21805;51.022;4.782;2023-07-31T01:40:07;18.60;99.90
35682;DHT22;21805;51.022;4.782;2023-07-31T01:42:36;18.60;99.90
35682;DHT22;21805;51.022;4.782;2023-07-31T01:45:10;18.70;99.90
35682;DHT22;21805;51.022;4.782;2023-07-31T01:47:39;18.60;99.90
35682;DHT22;21805;51.022;4.782;2023-07-31T01:50:13;18.60;99.90
35682;DHT22;21805;51.022;4.782;2023-07-31T01:52:54;18.60;99.90
35682;DHT22;21805;51.022;4.782;2023-07-31T01:55:21;18.70;99.90
35682;DHT22;21805;51.022;4.782;2023-07-31T01:57:47;18.80;99.90
35682;DHT22;21805;51.022;4.782;2023-07-31T02:00:17;18.70;99.90
35682;DHT22;21805;51.022;4.782;2023-07-31T02:02:45;18.80;99.90
35682;DHT22;21805;51.022;4.782;2023-07-31T02:05:17;18.80;99.90
35682;DHT22;21805;51.022;4.782;2023-07-31T02:12:54;18.70;99.90
35682;DHT22;21805;51.022;4.782;2023-07-31T02:21:12;18.80;99.90
35682;DHT22;21805;51.022;4.782;2023-07-31T02:23:49;18.80;99.90
35682;DHT22;21805;51.022;4.782;2023-07-31T02:26:20;18.70;99.90
35682;DHT22;21805;51.022;4.782;2023-07-31T02:28:50;18.90;99.90
35682;DHT22;21805;51.022;4.782;2023-07-31T02:31:18;18.90;99.90
35682;DHT22;21805;51.022;4.782;2023-07-31T02:33:48;18.90;99.90
35682;DHT22;21805;51.022;4.782;2023-07-31T02:36:31;18.90;99.90
35682;DHT22;21805;51.022;4.782;2023-07-31T02:39:16;18.90;99.90
35682;DHT22;21805;51.022;4.782;2023-07-31T02:41:56;18.90;99.90
35682;DHT22;21805;51.022;4.782;2023-07-31T02:44:42;18.90;99.90
35682;DHT22;21805;51.022;4.782;2023-07-31T02:49:43;18.80;99.90
35682;DHT22;21805;51.022;4.782;2023-07-31T02:52:13;18.90;99.90
35682;DHT22;21805;51.022;4.782;2023-07-31T02:57:26;18.90;99.90
35682;DHT22;21805;51.022;4.782;2023-07-31T02:59:57;18.90;99.90
35682;DHT22;21805;51.022;4.782;2023-07-31T03:02:28;18.90;99.90
35682;DHT22;21805;51.022;4.782;2023-07-31T03:05:06;18.90;99.90
35682;DHT22;21805;51.022;4.782;2023-07-31T03:07:43;19.00;99.90
35682;DHT22;21805;51.022;4.782;2023-07-31T03:10:11;19.00;99.90
35682;DHT22;21805;51.022;4.782;2023-07-31T03:15:08;19.10;99.90
35682;DHT22;21805;51.022;4.782;2023-07-31T03:17:34;19.10;99.90
35682;DHT22;21805;51.022;4.782;2023-07-31T03:22:59;19.20;99.90
35682;DHT22;21805;51.022;4.782;2023-07-31T03:25:30;19.20;99.90
35682;DHT22;21805;51.022;4.782;2023-07-31T03:28:21;19.20;99.90
35682;DHT22;21805;51.022;4.782;2023-07-31T03:30:53;19.10;99.90
35682;DHT22;21805;51.022;4.782;2023-07-31T03:33:19;19.10;99.90
35682;DHT22;21805;51.022;4.782;2023-07-31T03:35:51;19.10;99.90
35682;DHT22;21805;51.022;4.782;2023-07-31T03:38:29;19.10;99.90
35682;DHT22;21805;51.022;4.782;2023-07-31T03:40:59;19.10;99.90
35682;DHT22;21805;51.022;4.782;2023-07-31T03:43:27;19.10;99.90
35682;DHT22;21805;51.022;4.782;2023-07-31T03:45:53;19.10;99.90
35682;DHT22;21805;51.022;4.782;2023-07-31T03:48:31;19.10;99.90
35682;DHT22;21805;51.022;4.782;2023-07-31T03:51:06;19.10;99.90
35682;DHT22;21805;51.022;4.782;2023-07-31T03:53:44;19.10;99.90
35682;DHT22;21805;51.022;4.782;2023-07-31T03:59:26;19.10;99.90
35682;DHT22;21805;51.022;4.782;2023-07-31T04:04:40;19.00;99.90
35682;DHT22;21805;51.022;4.782;2023-07-31T04:07:16;19.00;99.90
35682;DHT22;21805;51.022;4.782;2023-07-31T04:12:39;19.00;99.90
35682;DHT22;21805;51.022;4.782;2023-07-31T04:15:22;19.00;99.90
35682;DHT22;21805;51.022;4.782;2023-07-31T04:18:24;19.00;99.90
35682;DHT22;21805;51.022;4.782;2023-07-31T04:20:55;19.00;99.90
35682;DHT22;21805;51.022;4.782;2023-07-31T04:29:04;18.80;99.90
35682;DHT22;21805;51.022;4.782;2023-07-31T04:31:31;18.70;99.90
35682;DHT22;21805;51.022;4.782;2023-07-31T04:33:57;18.80;99.90
35682;DHT22;21805;51.022;4.782;2023-07-31T04:36:24;18.80;99.90
35682;DHT22;21805;51.022;4.782;2023-07-31T04:38:55;18.70;99.90
35682;DHT22;21805;51.022;4.782;2023-07-31T04:41:22;18.60;99.90
35682;DHT22;21805;51.022;4.782;2023-07-31T04:44:00;18.50;99.90
35682;DHT22;21805;51.022;4.782;2023-07-31T04:46:27;18.50;99.90
35682;DHT22;21805;51.022;4.782;2023-07-31T04:48:54;18.50;99.90
35682;DHT22;21805;51.022;4.782;2023-07-31T04:54:13;18.50;99.90
35682;DHT22;21805;51.022;4.782;2023-07-31T04:56:52;18.30;99.90
35682;DHT22;21805;51.022;4.782;2023-07-31T04:59:30;18.40;99.90
35682;DHT22;21805;51.022;4.782;2023-07-31T05:02:04;18.40;99.90
35682;DHT22;21805;51.022;4.782;2023-07-31T05:04:38;18.40;99.90
35682;DHT22;21805;51.022;4.782;2023-07-31T05:07:12;18.50;99.90
35682;DHT22;21805;51.022;4.782;2023-07-31T05:09:43;18.50;99.90
35682;DHT22;21805;51.022;4.782;2023-07-31T05:12:19;18.50;99.90
35682;DHT22;21805;51.022;4.782;2023-07-31T05:14:48;18.50;99.90
35682;DHT22;21805;51.022;4.782;2023-07-31T05:17:30;18.50;99.90
35682;DHT22;21805;51.022;4.782;2023-07-31T05:20:01;18.50;99.90
35682;DHT22;21805;51.022;4.782;2023-07-31T05:22:29;18.40;99.90
35682;DHT22;21805;51.022;4.782;2023-07-31T05:24:57;18.40;99.90
35682;DHT22;21805;51.022;4.782;2023-07-31T05:27:25;18.50;99.90
35682;DHT22;21805;51.022;4.782;2023-07-31T05:29:51;18.50;99.90
35682;DHT22;21805;51.022;4.782;2023-07-31T05:32:18;18.50;99.90
35682;DHT22;21805;51.022;4.782;2023-07-31T05:34:47;18.50;99.90
35682;DHT22;21805;51.022;4.782;2023-07-31T05:37:16;18.50;99.90
35682;DHT22;21805;51.022;4.782;2023-07-31T05:39:47;18.40;99.90
35682;DHT22;21805;51.022;4.782;2023-07-31T05:42:19;18.30;99.90
35682;DHT22;21805;51.022;4.782;2023-07-31T05:44:45;18.20;99.90
35682;DHT22;21805;51.022;4.782;2023-07-31T05:47:13;18.30;99.90
35682;DHT22;21805;51.022;4.782;2023-07-31T05:49:45;18.30;99.90
35682;DHT22;21805;51.022;4.782;2023-07-31T05:52:11;18.40;99.90
35682;DHT22;21805;51.022;4.782;2023-07-31T05:54:38;18.30;99.90
35682;DHT22;21805;51.022;4.782;2023-07-31T05:59:41;18.20;99.90
35682;DHT22;21805;51.022;4.782;2023-07-31T06:02:08;18.10;99.90
35682;DHT22;21805;51.022;4.782;2023-07-31T06:04:39;18.10;99.90
35682;DHT22;21805;51.022;4.782;2023-07-31T06:07:06;18.20;99.90
35682;DHT22;21805;51.022;4.782;2023-07-31T06:09:32;18.10;99.90
35682;DHT22;21805;51.022;4.782;2023-07-31T06:12:00;18.10;99.90
35682;DHT22;21805;51.022;4.782;2023-07-31T06:14:25;18.10;99.90
35682;DHT22;21805;51.022;4.782;2023-07-31T06:16:54;18.20;99.90
35682;DHT22;21805;51.022;4.782;2023-07-31T06:19:22;18.10;99.90
35682;DHT22;21805;51.022;4.782;2023-07-31T06:21:48;18.20;99.90
35682;DHT22;21805;51.022;4.782;2023-07-31T06:26:48;18.30;99.90
35682;DHT22;21805;51.022;4.782;2023-07-31T06:42:14;18.20;99.90
35682;DHT22;21805;51.022;4.782;2023-07-31T09:30:22;19.40;99.90
35682;DHT22;21805;51.022;4.782;2023-07-31T09:38:51;19.40;99.90
35682;DHT22;21805;51.022;4.782;2023-07-31T09:55:51;19.50;99.90
35682;DHT22;21805;51.022;4.782;2023-07-31T09:58:48;19.60;99.90
35682;DHT22;21805;51.022;4.782;2023-07-31T10:01:17;19.70;99.90
35682;DHT22;21805;51.022;4.782;2023-07-31T10:03:59;19.70;99.90
35682;DHT22;21805;51.022;4.782;2023-07-31T10:06:35;19.80;99.90
35682;DHT22;21805;51.022;4.782;2023-07-31T11:00:58;20.10;99.90
35682;DHT22;21805;51.022;4.782;2023-07-31T14:55:01;20.10;99.90
35682;DHT22;21805;51.022;4.782;2023-07-31T18:28:19;19.30;99.90
35682;DHT22;21805;51.022;4.782;2023-07-31T18:30:55;19.30;99.90
35682;DHT22;21805;51.022;4.782;2023-07-31T18:33:22;19.40;99.90
35682;DHT22;21805;51.022;4.782;2023-07-31T18:36:26;19.40;99.90
35682;DHT22;21805;51.022;4.782;2023-07-31T18:41:39;19.60;99.90
35682;DHT22;21805;51.022;4.782;2023-07-31T18:44:21;19.60;99.90
35682;DHT22;21805;51.022;4.782;2023-07-31T18:46:53;19.60;99.90
35682;DHT22;21805;51.022;4.782;2023-07-31T18:59:41;19.70;99.90
35682;DHT22;21805;51.022;4.782;2023-07-31T19:02:08;19.80;99.90
35682;DHT22;21805;51.022;4.782;2023-07-31T19:04:37;19.80;99.90
35682;DHT22;21805;51.022;4.782;2023-07-31T19:07:19;19.90;99.90
35682;DHT22;21805;51.022;4.782;2023-07-31T19:09:54;19.80;99.90
35682;DHT22;21805;51.022;4.782;2023-07-31T19:12:47;19.90;99.90
35682;DHT22;21805;51.022;4.782;2023-07-31T19:15:19;19.80;99.90
35682;DHT22;21805;51.022;4.782;2023-07-31T19:20:43;19.80;99.90
35682;DHT22;21805;51.022;4.782;2023-07-31T19:26:22;19.70;99.90
35682;DHT22;21805;51.022;4.782;2023-07-31T19:28:57;19.70;99.90
35682;DHT22;21805;51.022;4.782;2023-07-31T19:31:34;19.70;99.90
35682;DHT22;21805;51.022;4.782;2023-07-31T19:34:06;19.60;99.90
35682;DHT22;21805;51.022;4.782;2023-07-31T19:39:20;19.70;99.90
35682;DHT22;21805;51.022;4.782;2023-07-31T19:41:47;19.60;99.90
35682;DHT22;21805;51.022;4.782;2023-07-31T19:47:03;19.60;99.90
35682;DHT22;21805;51.022;4.782;2023-07-31T21:13:07;19.70;99.90
35682;DHT22;21805;51.022;4.782;2023-07-31T21:15:41;19.80;99.90
35682;DHT22;21805;51.022;4.782;2023-07-31T21:18:10;19.80;99.90
35682;DHT22;21805;51.022;4.782;2023-07-31T21:20:38;19.80;99.90
35682;DHT22;21805;51.022;4.782;2023-07-31T21:23:04;19.80;99.90
35682;DHT22;21805;51.022;4.782;2023-07-31T21:25:33;19.80;99.90
35682;DHT22;21805;51.022;4.782;2023-07-31T21:28:00;19.80;99.90
35682;DHT22;21805;51.022;4.782;2023-07-31T21:30:26;19.70;99.90
35682;DHT22;21805;51.022;4.782;2023-07-31T21:32:52;19.70;99.90
35682;DHT22;21805;51.022;4.782;2023-07-31T21:35:18;19.80;99.90
35682;DHT22;21805;51.022;4.782;2023-07-31T21:37:44;19.70;99.90
35682;DHT22;21805;51.022;4.782;2023-07-31T21:40:19;19.70;99.90
35682;DHT22;21805;51.022;4.782;2023-07-31T21:42:59;19.60;99.90
35682;DHT22;21805;51.022;4.782;2023-07-31T21:45:25;19.70;99.90
35682;DHT22;21805;51.022;4.782;2023-07-31T21:57:26;19.70;99.90
35682;DHT22;21805;51.022;4.782;2023-07-31T21:59:51;19.60;99.90
35682;DHT22;21805;51.022;4.782;2023-07-31T22:02:17;19.60;99.90
35682;DHT22;21805;51.022;4.782;2023-07-31T22:04:44;19.70;99.90
35682;DHT22;21805;51.022;4.782;2023-07-31T22:07:10;19.70;99.90
35682;DHT22;21805;51.022;4.782;2023-07-31T22:12:15;19.70;99.90
35682;DHT22;21805;51.022;4.782;2023-07-31T22:14:49;19.70;99.90
35682;DHT22;21805;51.022;4.782;2023-07-31T22:17:14;19.70;99.90
35682;DHT22;21805;51.022;4.782;2023-07-31T22:19:40;19.70;99.90
35682;DHT22;21805;51.022;4.782;2023-07-31T22:22:12;19.70;99.90
35682;DHT22;21805;51.022;4.782;2023-07-31T22:24:40;19.70;99.90
35682;DHT22;21805;51.022;4.782;2023-07-31T22:29:35;19.60;99.90
35682;DHT22;21805;51.022;4.782;2023-07-31T22:32:02;19.50;99.90
35682;DHT22;21805;51.022;4.782;2023-07-31T22:34:31;19.60;99.90
35682;DHT22;21805;51.022;4.782;2023-07-31T22:36:58;19.60;99.90
35682;DHT22;21805;51.022;4.782;2023-07-31T22:39:27;19.50;99.90
35682;DHT22;21805;51.022;4.782;2023-07-31T22:41:54;19.60;99.90
35682;DHT22;21805;51.022;4.782;2023-07-31T22:44:22;19.60;99.90
35682;DHT22;21805;51.022;4.782;2023-07-31T22:46:48;19.60;99.90
35682;DHT22;21805;51.022;4.782;2023-07-31T22:49:13;19.60;99.90
35682;DHT22;21805;51.022;4.782;2023-07-31T22:51:40;19.60;99.90
35682;DHT22;21805;51.022;4.782;2023-07-31T22:54:08;19.50;99.90
35682;DHT22;21805;51.022;4.782;2023-07-31T22:56:35;19.50;99.90
35682;DHT22;21805;51.022;4.782;2023-07-31T22:59:01;19.50;99.90
35682;DHT22;21805;51.022;4.782;2023-07-31T23:01:28;19.40;99.90
35682;DHT22;21805;51.022;4.782;2023-07-31T23:03:53;19.40;99.90
35682;DHT22;21805;51.022;4.782;2023-07-31T23:06:19;19.40;99.90
35682;DHT22;21805;51.022;4.782;2023-07-31T23:11:15;19.40;99.90
35682;DHT22;21805;51.022;4.782;2023-07-31T23:16:12;19.40;99.90
35682;DHT22;21805;51.022;4.782;2023-07-31T23:21:09;19.20;99.90
35682;DHT22;21805;51.022;4.782;2023-07-31T23:23:37;19.30;99.90
35682;DHT22;21805;51.022;4.782;2023-07-31T23:26:03;19.30;99.90
35682;DHT22;21805;51.022;4.782;2023-07-31T23:31:04;19.20;99.90
35682;DHT22;21805;51.022;4.782;2023-07-31T23:33:30;19.20;99.90
35682;DHT22;21805;51.022;4.782;2023-07-31T23:35:57;19.10;99.90
35682;DHT22;21805;51.022;4.782;2023-07-31T23:38:25;19.00;99.90
35682;DHT22;21805;51.022;4.782;2023-07-31T23:40:51;19.10;99.90
35682;DHT22;21805;51.022;4.782;2023-07-31T23:43:18;19.10;99.90
35682;DHT22;21805;51.022;4.782;2023-07-31T23:48:13;19.00;99.90
35682;DHT22;21805;51.022;4.782;2023-07-31T23:50:40;18.90;99.90
35682;DHT22;21805;51.022;4.782;2023-07-31T23:53:05;18.90;99.90
35682;DHT22;21805;51.022;4.782;2023-07-31T23:55:32;18.80;99.90
35682;DHT22;21805;51.022;4.782;2023-07-31T23:58:02;18.90;99.90
